Latest Weather Observations for Parawa West

IDS60801

Issued at 11:42 pm CDT Tuesday 26 January 2021 (issued every 10 minutes, with the page automatically refreshed every 10 minutes)

About weather observations | Map of weather stations | Latest weather observations for SA | Other Formats
Station Details ID: 023875 Name: SECOND VALLEY FOREST AWS Lat: -35.57 Lon: 138.29 Height: 341.0 m
Data from the previous 72 hours. | See also: Recent months at Parawa West
Date/Time
CDT
Temp
°C
App
Temp
°C
Dew
Point
°C
Rel
Hum
%
Delta-T
°C
Wind Press
QNH
hPa
Press
MSL
hPa
Rain since
9am
mm
Dir  Spd
km/h
Gust
km/h
Spd
kts
Gust
kts
26/11:30pm 13.4 8.2 11.5 88 1.0 SSE 30 43 16 23 1011.9 1010.8 0.0
26/11:00pm 13.4 7.8 11.6 89 1.0 SSE 32 41 17 22 1012.0 1010.9 0.0
26/10:30pm 13.5 8.0 11.7 89 1.0 SSE 32 46 17 25 1012.0 1010.9 0.0
26/10:00pm 13.7 9.0 12.1 90 0.9 SE 28 43 15 23 1011.7 1010.6 0.0
26/09:30pm 13.8 8.3 11.8 88 1.1 SE 32 41 17 22 1011.3 1010.2 0.0
26/09:00pm 13.9 8.3 11.6 86 1.3 SE 32 41 17 22 1010.8 1009.7 0.0
26/08:30pm 14.0 8.9 11.9 87 1.2 SSE 30 43 16 23 1010.5 1009.4 0.0
26/08:00pm 14.4 9.7 11.9 85 1.4 SSE 28 39 15 21 1010.2 1009.1 0.0
26/07:30pm 14.9 10.8 11.5 80 1.9 SSE 24 32 13 17 1010.0 1008.9 0.0
26/07:00pm 15.3 11.2 11.3 77 2.2 SSE 24 32 13 17 1009.7 1008.6 0.0
26/06:30pm 15.6 11.4 11.2 75 2.4 SSE 24 32 13 17 1009.5 1008.4 0.0
26/06:00pm 16.8 12.5 11.9 73 2.7 SSE 26 35 14 19 1009.2 1008.1 0.0
26/05:30pm 15.8 11.0 11.8 77 2.2 SSE 28 35 15 19 1009.0 1007.9 0.0
26/05:00pm 15.6 11.2 11.6 77 2.2 SSE 26 37 14 20 1009.1 1008.0 0.0
26/04:30pm 15.8 11.6 11.0 73 2.6 SSE 24 33 13 18 1009.1 1008.0 0.0
26/04:00pm 16.6 11.7 11.3 71 2.9 SSE 28 39 15 21 1009.0 1007.9 0.0
26/03:30pm 16.8 12.1 11.9 73 2.7 SSE 28 39 15 21 1008.9 1007.8 0.0
26/03:00pm 16.3 11.3 10.8 70 3.0 SSE 28 37 15 20 1008.8 1007.7 0.0
26/02:30pm 17.1 11.8 9.8 62 3.9 SSE 28 39 15 21 1008.9 1007.8 0.0
26/02:00pm 17.4 13.0 11.7 69 3.2 SSE 26 39 14 21 1008.8 1007.7 0.0
26/01:30pm 16.8 11.5 11.1 69 3.1 S 30 37 16 20 1008.8 1007.7 0.0
26/01:00pm 16.8 11.9 11.3 70 3.0 S 28 37 15 20 1008.8 1007.7 0.0
26/12:30pm 15.8 11.1 12.0 78 2.1 S 28 39 15 21 1008.7 1007.6 0.0
26/12:00pm 16.0 11.8 11.0 72 2.7 S 24 33 13 18 1008.8 1007.7 0.0
26/11:30am 15.8 11.7 11.6 76 2.3 SSE 24 35 13 19 1008.3 1007.1 0.0
26/11:00am 15.4 10.6 11.8 79 2.0 S 28 35 15 19 1008.1 1006.9 0.0
26/10:30am 15.2 10.7 12.7 85 1.4 S 28 35 15 19 1008.2 1007.0 0.0
26/10:00am 14.7 10.8 12.2 85 1.4 S 24 35 13 19 1007.9 1006.8 0.0
26/09:30am 14.7 11.1 11.8 83 1.6 S 22 35 12 19 1007.7 1006.6 0.0
26/09:00am 14.4 10.8 13.0 91 0.8 S 24 33 13 18 1007.3 1006.2 22.0
26/08:30am 14.5 11.4 13.5 94 0.6 S 22 28 12 15 1006.7 1005.6 22.0
26/08:00am 14.4 11.4 13.6 95 0.5 S 22 32 12 17 1006.3 1005.2 22.0
26/07:30am 14.5 11.5 13.7 95 0.5 S 22 32 12 17 1005.9 1004.7 22.0
26/07:00am 14.5 10.8 13.9 96 0.3 S 26 33 14 18 1005.4 1004.2 22.0
26/06:30am 14.5 11.6 14.0 97 0.3 SSE 22 30 12 16 1005.0 1003.8 22.0
26/06:00am 14.5 11.6 14.0 97 0.3 S 22 30 12 16 1004.6 1003.5 22.0
26/05:30am 14.4 11.1 13.9 97 0.3 S 24 35 13 19 1004.4 1003.3 22.0
26/05:00am 14.5 11.3 14.2 98 0.2 S 24 32 13 17 1004.0 1002.9 22.0
26/04:30am 14.5 10.9 14.3 99 0.1 S 26 33 14 18 1003.7 1002.6 22.0
26/04:00am 14.1 10.5 14.1 100 0.0 S 26 35 14 19 1003.5 1002.3 22.0
26/03:30am 14.3 11.1 14.3 100 0.0 S 24 32 13 17 1003.3 1002.1 22.0
26/03:00am 14.5 10.6 14.5 100 0.0 S 28 35 15 19 1003.4 1002.2 22.0
26/02:30am 14.4 10.1 14.4 100 0.0 S 30 39 16 21 1003.6 1002.5 21.8
26/02:00am 15.3 12.1 15.3 100 0.0 SSW 26 39 14 21 1003.7 1002.6 21.6
26/01:30am 15.6 13.3 15.6 100 0.0 S 22 30 12 16 1003.7 1002.6 21.4
26/01:00am 15.8 14.1 15.8 100 0.0 SSW 19 26 10 14 1003.8 1002.7 21.0
26/12:30am 17.2 18.3 17.2 100 0.0 SSW 7 11 4 6 1003.6 1002.5 20.6
26/12:00am 17.2 18.9 17.2 100 0.0 S 4 4 2 2 1003.5 1002.3 20.2
 
Date/Time
CDT
Temp
°C
App
Temp
°C
Dew
Point
°C
Rel
Hum
%
Delta-T
°C
Wind Press
QNH
hPa
Press
MSL
hPa
Rain since
9am
mm
Dir  Spd
km/h
Gust
km/h
Spd
kts
Gust
kts
25/11:30pm 17.1 19.2 17.1 100 0.0 S 2 2 1 1 1003.6 1002.5 20.2
25/11:00pm 17.0 18.3 17.0 100 0.0 S 6 7 3 4 1003.4 1002.2 20.2
25/10:30pm 17.0 18.3 17.0 100 0.0 SSE 6 6 3 3 1003.1 1001.9 20.2
25/10:00pm 16.9 18.5 16.9 100 0.0 SSE 4 6 2 3 1002.7 1001.5 20.2
25/09:30pm 17.0 18.1 17.0 100 0.0 S 7 11 4 6 1002.4 1001.2 20.2
25/09:00pm 17.0 17.3 17.0 100 0.0 S 11 15 6 8 1002.0 1000.8 20.2
25/08:30pm 17.0 16.2 17.0 100 0.0 S 17 22 9 12 1001.5 1000.4 20.2
25/08:00pm 17.0 16.2 17.0 100 0.0 SSE 17 24 9 13 1001.1 1000.0 20.2
25/07:30pm 17.1 15.9 17.1 100 0.0 S 19 22 10 12 1001.0 999.9 20.2
25/07:00pm 17.1 16.3 17.1 100 0.0 SSE 17 22 9 12 1001.3 1000.2 20.0
25/06:30pm 17.1 15.9 17.1 100 0.0 SSE 19 24 10 13 1000.8 999.6 20.0
25/06:00pm 17.4 16.7 17.4 100 0.0 SSE 17 22 9 12 1000.7 999.5 20.0
25/05:30pm 17.3 15.9 17.1 99 0.1 SSE 20 26 11 14 1001.0 999.9 20.0
25/05:00pm 17.5 16.4 17.3 99 0.1 SSE 19 24 10 13 1000.9 999.7 20.0
25/04:30pm 17.7 17.5 17.5 99 0.1 SE 15 20 8 11 1000.5 999.3 19.8
25/04:00pm 17.6 16.5 17.4 99 0.1 SE 19 22 10 12 1000.3 999.1 19.6
25/03:30pm 17.4 16.6 17.2 99 0.1 SE 17 22 9 12 1000.7 999.5 19.0
25/03:00pm 17.5 16.7 17.2 98 0.2 SE 17 24 9 13 1002.3 1001.1 7.2
25/02:30pm 17.7 16.0 17.2 97 0.3 SSE 22 30 12 16 1001.5 1000.4 3.0
25/02:00pm 17.8 15.0 17.2 96 0.4 SE 28 39 15 21 1001.3 1000.2 1.2
25/01:30pm 18.0 15.5 17.0 94 0.6 SSE 26 33 14 18 1001.9 1000.7 0.0
25/01:00pm 18.4 16.2 16.9 91 0.9 SSE 24 37 13 20 1001.5 1000.4 0.0
25/12:36pm 18.4 17.3 17.2 93 0.7 SSE 19 43 10 23 1001.3 1000.2 0.0
25/12:30pm 18.4 19.0 16.9 91 0.9 SE 9 19 5 10 1002.1 1000.9 0.0
25/12:00pm 19.5 15.6 16.5 83 1.8 S 32 44 17 24 1001.1 1000.0 0.0
25/11:30am 21.0 18.7 16.6 76 2.7 SSE 24 32 13 17 1001.2 1000.1 0.0
25/11:00am 20.5 18.0 16.1 76 2.7 SSE 24 30 13 16 1001.4 1000.3 0.0
25/10:30am 20.6 18.9 16.2 76 2.7 SSE 20 26 11 14 1001.2 1000.1 0.0
25/10:00am 20.5 18.7 15.9 75 2.8 SE 20 28 11 15 1001.2 1000.1 0.0
25/09:30am 19.7 17.4 15.6 77 2.5 SSE 22 28 12 15 1001.6 1000.5 0.0
25/09:00am 20.3 19.1 15.1 72 3.1 SSE 15 19 8 10 1002.6 1001.4 0.4
25/08:30am 20.7 19.1 15.0 70 3.4 SE 17 24 9 13 1002.0 1000.8 0.4
25/08:00am 21.1 20.0 15.4 70 3.4 SSE 15 24 8 13 1002.5 1001.3 0.4
25/07:30am 21.7 22.4 14.6 64 4.3 WSW 4 7 2 4 1003.2 1002.0 0.2
25/07:00am 21.5 19.7 14.4 64 4.2 W 17 26 9 14 1003.7 1002.6 0.2
25/06:30am 24.9 21.0 10.8 41 8.0 WNW 22 46 12 25 1003.7 1002.6 0.0
25/06:21am 25.0 20.3 10.5 40 8.2 W 26 46 14 25 1003.1 1001.9 0.0
25/06:00am 23.7 20.5 10.0 42 7.7 NW 17 22 9 12 1003.2 1002.0 0.0
25/05:30am 24.0 21.9 9.9 41 7.9 N 11 20 6 11 1002.5 1001.3 0.0
25/05:00am 25.9 24.1 8.0 32 9.7 NNW 7 11 4 6 1002.5 1001.3 0.0
25/04:30am 27.9 25.9 7.2 27 11.3 ENE 7 13 4 7 1002.5 1001.3 0.0
25/04:00am 27.6 25.2 6.9 27 11.1 E 9 11 5 6 1002.1 1000.9 0.0
25/03:30am 27.0 24.7 7.5 29 10.6 E 9 11 5 6 1002.5 1001.3 0.0
25/03:00am 27.1 25.4 7.5 29 10.7 NW 6 9 3 5 1002.9 1001.7 0.0
25/02:30am 28.4 26.5 7.6 27 11.4 NNE 7 13 4 7 1003.2 1002.0 0.0
25/02:00am 28.5 25.1 7.7 27 11.4 ESE 15 20 8 11 1003.1 1001.9 0.0
25/01:30am 26.0 23.7 7.6 31 10.0 ENE 9 15 5 8 1003.4 1002.2 0.0
25/01:00am 27.6 25.4 6.4 26 11.3 ESE 7 9 4 5 1003.9 1002.8 0.0
25/12:30am 28.0 26.2 5.6 24 11.9 SE 4 6 2 3 1004.1 1003.0 0.0
25/12:00am 27.4 24.3 5.6 25 11.5 ESE 11 15 6 8 1004.1 1003.0 0.0
 
Date/Time
CDT
Temp
°C
App
Temp
°C
Dew
Point
°C
Rel
Hum
%
Delta-T
°C
Wind Press
QNH
hPa
Press
MSL
hPa
Rain since
9am
mm
Dir  Spd
km/h
Gust
km/h
Spd
kts
Gust
kts
24/11:30pm 27.7 23.7 4.7 23 12.0 SE 15 17 8 9 1004.2 1003.1 0.0
24/11:00pm 27.2 23.7 5.5 25 11.4 SE 13 17 7 9 1004.2 1003.1 0.0
24/10:30pm 26.3 23.6 5.8 27 10.8 SSE 9 11 5 6 1004.2 1003.1 0.0
24/10:00pm 25.9 23.3 6.0 28 10.4 SE 9 13 5 7 1004.0 1002.9 0.0
24/09:30pm 25.9 23.0 6.5 29 10.3 SE 11 20 6 11 1004.0 1002.9 0.0
24/09:00pm 25.6 22.5 7.2 31 9.9 SSE 13 17 7 9 1003.8 1002.7 0.0
24/08:30pm 24.7 22.5 7.8 34 9.1 SSE 9 11 5 6 1003.7 1002.6 0.0
24/08:00pm 25.8 23.1 8.8 34 9.4 SSE 13 17 7 9 1003.9 1002.8 0.0
24/07:30pm 26.4 24.3 9.7 35 9.4 SSE 11 15 6 8 1003.8 1002.7 0.0
24/07:00pm 26.9 25.0 10.6 36 9.3 SSE 11 15 6 8 1003.9 1002.8 0.0
24/06:30pm 29.5 28.4 12.0 34 10.4 SSE 9 13 5 7 1003.5 1002.3 0.0
24/06:00pm 29.0 27.0 11.6 34 10.2 SSE 13 19 7 10 1003.6 1002.5 0.0
24/05:30pm 32.4 29.8 9.2 24 13.3 S 13 22 7 12 1003.5 1002.3 0.0
24/05:25pm 32.8 29.6 8.3 22 13.9 WSW 15 22 8 12 1003.5 1002.3 0.0
24/05:00pm 38.1 33.3 2.5 11 18.9 NW 17 28 9 15 1003.6 1002.5 0.0
24/04:30pm 36.0 31.7 3.3 13 17.4 NW 15 22 8 12 1004.0 1002.9 0.0
24/04:00pm 36.5 31.1 2.5 12 17.9 NW 20 28 11 15 1004.3 1003.2 0.0
24/03:30pm 37.4 33.1 3.2 12 18.3 NW 15 26 8 14 1004.7 1003.6 0.0
24/03:00pm 36.6 32.4 3.7 13 17.7 NW 15 24 8 13 1005.3 1004.1 0.0
24/02:30pm 37.7 33.4 3.4 12 18.5 NW 15 28 8 15 1005.4 1004.2 0.0
24/02:00pm 38.6 33.9 2.9 11 19.1 NW 17 32 9 17 1005.6 1004.4 0.0
24/01:30pm 38.8 34.6 1.7 10 19.6 NW 13 26 7 14 1005.9 1004.7 0.0
24/01:00pm 38.0 33.6 2.5 11 18.8 NNW 15 28 8 15 1006.2 1005.1 0.0
24/12:30pm 37.1 33.5 0.4 10 18.8 NW 9 22 5 12 1006.5 1005.4 0.0
24/12:00pm 37.0 33.4 0.4 10 18.7 NW 9 22 5 12 1006.6 1005.5 0.0
24/11:30am 35.4 32.2 0.5 11 17.7 NNW 7 17 4 9 1006.7 1005.6 0.0
24/11:00am 35.8 32.8 2.0 12 17.6 NNW 7 20 4 11 1006.9 1005.8 0.0
24/10:30am 34.8 32.0 2.3 13 16.9 NW 6 22 3 12 1006.9 1005.8 0.0
24/10:00am 32.3 29.4 1.4 14 15.6 SW 6 15 3 8 1007.2 1006.1 0.0
24/09:30am 31.6 28.6 0.9 14 15.3 NNE 6 15 3 8 1007.3 1006.2 0.0
24/09:00am 30.7 28.1 1.1 15 14.7 NE 4 17 2 9 1007.4 1006.3 0.0
24/08:30am 29.3 27.0 2.5 18 13.5 NNW 4 7 2 4 1007.4 1006.3 0.0
24/08:00am 29.5 26.8 2.7 18 13.6 N 6 17 3 9 1007.3 1006.2 0.0
24/07:30am 28.4 26.3 4.0 21 12.6 N 4 7 2 4 1007.2 1006.1 0.0
24/07:00am 28.7 26.8 2.8 19 13.1 NW 2 6 1 3 1006.9 1005.8 0.0
24/06:30am 27.2 24.8 4.3 23 11.8 NNE 6 20 3 11 1006.7 1005.6 0.0
24/06:00am 28.1 25.3 5.0 23 12.1 NE 9 17 5 9 1006.7 1005.6 0.0
24/05:30am 27.3 25.1 6.1 26 11.3 NE 7 13 4 7 1006.6 1005.5 0.0
24/05:00am 27.6 24.7 6.4 26 11.3 NE 11 19 6 10 1006.5 1005.4 0.0
24/04:30am 27.9 23.5 6.6 26 11.5 NE 19 30 10 16 1006.6 1005.5 0.0
24/04:00am 27.8 23.3 7.1 27 11.2 NE 20 35 11 19 1006.7 1005.6 0.0
24/03:30am 27.8 22.6 7.1 27 11.2 NE 24 37 13 20 1006.9 1005.8 0.0
24/03:00am 27.9 21.9 7.2 27 11.2 NE 28 41 15 22 1007.2 1006.1 0.0
24/02:30am 27.6 22.3 6.9 27 11.2 NE 24 35 13 19 1007.7 1006.6 0.0
24/02:00am 27.4 22.1 6.8 27 11.1 NE 24 37 13 20 1008.1 1006.9 0.0
24/01:30am 27.4 22.1 6.8 27 11.1 ENE 24 32 13 17 1008.4 1007.2 0.0
24/01:00am 27.1 21.5 7.0 28 10.8 ENE 26 33 14 18 1008.7 1007.6 0.0
24/12:30am 27.5 22.6 6.8 27 11.1 ENE 22 30 12 16 1009.0 1007.9 0.0
24/12:00am 26.9 21.6 6.9 28 10.7 ENE 24 30 13 16 1009.3 1008.2 0.0

Other formats

Comma delimited format used in spreadsheet applications
http://www.bom.gov.au/fwo/IDS60801/IDS60801.94811.axf

JavaScript Object Notation format (JSON) in row-major order
http://www.bom.gov.au/fwo/IDS60801/IDS60801.94811.json

Data quality

Most of these data are generated automatically and are frequently updated. Quality checks on data are not normally performed. It is possible for incorrect values to appear. Refer to information at About Latest Weather Observations and please check the disclaimer before using these data.